createdAt,value
2023-01-29T00:00:46.489Z,2.60
2023-01-29T00:03:35.506Z,2.50
2023-01-29T00:06:24.365Z,2.70
2023-01-29T00:09:13.802Z,2.60
2023-01-29T00:12:02.644Z,2.50
2023-01-29T00:14:52.846Z,2.60
2023-01-29T00:17:41.525Z,2.50
2023-01-29T00:20:31.036Z,2.40
2023-01-29T00:23:23.432Z,2.30
2023-01-29T00:26:13.082Z,2.40
2023-01-29T00:29:06.008Z,2.30
2023-01-29T00:31:56.626Z,2.40
2023-01-29T00:34:45.361Z,2.40
2023-01-29T00:37:34.118Z,2.40
2023-01-29T00:40:23.743Z,2.60
2023-01-29T00:43:30.250Z,2.30
2023-01-29T00:46:18.963Z,2.40
2023-01-29T00:49:09.948Z,2.40
2023-01-29T00:52:16.302Z,2.40
2023-01-29T00:55:06.417Z,2.40
2023-01-29T00:57:55.237Z,2.40
2023-01-29T01:00:44.123Z,2.40
2023-01-29T01:03:35.342Z,2.30
2023-01-29T01:06:25.555Z,2.40
2023-01-29T01:09:31.769Z,2.40
2023-01-29T01:12:20.459Z,2.30
2023-01-29T01:15:10.330Z,2.30
2023-01-29T01:18:01.689Z,2.30
2023-01-29T01:20:51.839Z,2.30
2023-01-29T01:23:42.007Z,2.30
2023-01-29T01:26:31.301Z,2.20
2023-01-29T01:29:20.025Z,2.30
2023-01-29T01:32:08.719Z,2.20
2023-01-29T01:34:57.544Z,2.30
2023-01-29T01:37:46.330Z,2.20
2023-01-29T01:40:37.018Z,2.30
2023-01-29T01:43:25.791Z,2.20
2023-01-29T01:46:14.733Z,2.30
2023-01-29T01:49:06.353Z,2.30
2023-01-29T01:51:55.282Z,2.10
2023-01-29T01:54:44.984Z,2.20
2023-01-29T02:00:41.909Z,2.30
2023-01-29T02:03:52.855Z,2.30
2023-01-29T02:07:00.528Z,2.30
2023-01-29T02:09:54.158Z,2.30
2023-01-29T02:12:46.838Z,2.30
2023-01-29T02:15:41.956Z,2.40
2023-01-29T02:18:38.140Z,2.10
2023-01-29T02:22:04.829Z,2.10
2023-01-29T02:25:18.172Z,2.00
2023-01-29T02:28:24.897Z,2.00
2023-01-29T02:31:23.284Z,2.00
2023-01-29T02:34:20.739Z,2.20
2023-01-29T02:37:12.326Z,2.00
2023-01-29T02:40:10.397Z,2.10
2023-01-29T02:43:08.099Z,2.10
2023-01-29T02:46:09.619Z,2.10
2023-01-29T02:49:03.501Z,2.10
2023-01-29T02:52:00.766Z,2.10
2023-01-29T02:54:56.131Z,2.30
2023-01-29T02:57:48.180Z,2.20
2023-01-29T03:00:40.876Z,2.20
2023-01-29T03:03:39.728Z,2.30
2023-01-29T03:06:33.678Z,2.20
2023-01-29T03:09:27.741Z,2.20
2023-01-29T03:12:34.177Z,2.30
2023-01-29T03:15:30.060Z,2.40
2023-01-29T03:18:48.851Z,2.30
2023-01-29T03:22:00.264Z,2.10
2023-01-29T03:25:12.286Z,2.20
2023-01-29T03:28:22.892Z,2.20
2023-01-29T03:31:33.464Z,2.20
2023-01-29T03:34:34.781Z,2.30
2023-01-29T03:37:31.323Z,2.20
2023-01-29T03:40:24.364Z,2.20
2023-01-29T03:43:22.948Z,2.10
2023-01-29T03:46:19.196Z,2.30
2023-01-29T03:49:19.193Z,2.10
2023-01-29T03:52:17.691Z,2.30
2023-01-29T03:55:14.308Z,2.30
2023-01-29T03:58:10.437Z,2.10
2023-01-29T04:01:03.669Z,2.20
2023-01-29T04:03:58.369Z,2.10
2023-01-29T04:06:50.930Z,2.10
2023-01-29T04:09:47.907Z,2.30
2023-01-29T04:12:42.329Z,2.20
2023-01-29T04:15:35.885Z,2.20
2023-01-29T04:18:25.756Z,2.20
2023-01-29T04:21:32.150Z,2.20
2023-01-29T04:24:21.450Z,2.20
2023-01-29T04:27:27.495Z,2.10
2023-01-29T04:30:34.684Z,2.20
2023-01-29T04:33:35.417Z,2.20
2023-01-29T04:36:35.855Z,2.10
2023-01-29T04:39:28.971Z,2.10
2023-01-29T04:42:30.296Z,2.10
2023-01-29T04:45:28.985Z,2.10
2023-01-29T04:48:23.382Z,2.20
2023-01-29T04:51:21.307Z,2.30
2023-01-29T04:54:17.045Z,2.10
2023-01-29T04:57:13.098Z,2.10
2023-01-29T05:00:08.595Z,2.20
2023-01-29T05:02:58.423Z,2.20
2023-01-29T05:05:49.408Z,2.20
2023-01-29T05:08:40.381Z,2.10
2023-01-29T05:11:31.747Z,2.00
2023-01-29T05:14:22.143Z,2.10
2023-01-29T05:17:16.643Z,2.10
2023-01-29T05:20:06.168Z,2.20
2023-01-29T05:22:55.027Z,2.10
2023-01-29T05:25:46.907Z,2.20
2023-01-29T05:28:34.673Z,2.30
2023-01-29T05:31:23.642Z,2.20
2023-01-29T05:34:17.398Z,2.40
2023-01-29T05:37:06.456Z,2.40
2023-01-29T05:39:55.208Z,2.30
2023-01-29T05:42:44.457Z,2.20
2023-01-29T05:45:33.177Z,2.20
2023-01-29T05:48:22.137Z,2.20
2023-01-29T05:51:12.624Z,2.20
2023-01-29T05:54:01.429Z,2.20
2023-01-29T05:56:53.394Z,2.30
2023-01-29T05:59:42.075Z,2.30
2023-01-29T06:02:32.655Z,2.20
2023-01-29T06:05:21.473Z,2.20
2023-01-29T06:08:11.619Z,2.10
2023-01-29T06:11:00.505Z,2.10
2023-01-29T06:13:49.471Z,2.30
2023-01-29T06:16:38.264Z,2.20
2023-01-29T06:19:27.015Z,2.20
2023-01-29T06:22:15.700Z,2.40
2023-01-29T06:25:06.747Z,2.40
2023-01-29T06:27:58.409Z,2.30
2023-01-29T06:30:48.592Z,2.30
2023-01-29T06:33:37.605Z,2.20
2023-01-29T06:36:26.412Z,2.30
2023-01-29T06:39:15.328Z,2.30
2023-01-29T06:42:05.609Z,2.20
2023-01-29T06:44:54.349Z,2.30
2023-01-29T06:47:43.020Z,2.40
2023-01-29T06:50:32.673Z,2.40
2023-01-29T06:53:21.431Z,2.40
2023-01-29T06:56:10.720Z,2.40
2023-01-29T06:59:01.205Z,2.40
2023-01-29T07:01:50.180Z,2.30
2023-01-29T07:04:39.354Z,2.40
2023-01-29T07:07:29.286Z,2.30
2023-01-29T07:10:18.955Z,2.40
2023-01-29T07:13:07.840Z,2.40
2023-01-29T07:16:00.059Z,2.40
2023-01-29T07:18:48.754Z,2.40
2023-01-29T07:21:41.697Z,2.60
2023-01-29T07:24:31.315Z,2.50
2023-01-29T07:27:20.035Z,2.40
2023-01-29T07:30:10.440Z,2.50
2023-01-29T07:33:07.073Z,2.40
2023-01-29T07:35:56.077Z,2.40
2023-01-29T07:38:44.707Z,2.60
2023-01-29T07:41:33.764Z,2.50
2023-01-29T07:44:22.601Z,2.60
2023-01-29T07:47:11.354Z,2.40
2023-01-29T07:50:01.677Z,2.40
2023-01-29T07:52:50.943Z,2.40
2023-01-29T07:55:39.737Z,2.60
2023-01-29T07:58:31.108Z,2.60
2023-01-29T08:01:19.878Z,2.60
2023-01-29T08:04:08.596Z,2.70
2023-01-29T08:06:59.312Z,2.80
2023-01-29T08:09:48.520Z,2.70
2023-01-29T08:12:37.534Z,2.70
2023-01-29T08:15:26.734Z,2.70
2023-01-29T08:18:15.985Z,2.80
2023-01-29T08:21:05.253Z,2.70
2023-01-29T08:23:55.303Z,2.80
2023-01-29T08:26:44.220Z,2.80
2023-01-29T08:29:33.157Z,2.80
2023-01-29T08:32:21.899Z,2.60
2023-01-29T08:35:11.187Z,2.60
2023-01-29T08:38:01.583Z,2.70
2023-01-29T08:40:51.765Z,2.70
2023-01-29T08:43:40.721Z,2.70
2023-01-29T08:46:30.099Z,2.70
2023-01-29T08:49:18.834Z,2.90
2023-01-29T08:52:07.641Z,2.90
2023-01-29T08:54:56.261Z,2.80
2023-01-29T08:57:46.564Z,2.70
2023-01-29T09:00:36.186Z,2.90
2023-01-29T09:03:24.986Z,2.80
2023-01-29T09:06:18.909Z,2.90
2023-01-29T09:09:08.392Z,3.10
2023-01-29T09:11:57.303Z,3.10
2023-01-29T09:14:47.435Z,3.20
2023-01-29T09:17:36.264Z,3.30
2023-01-29T09:20:25.010Z,3.20
2023-01-29T09:23:13.869Z,3.30
2023-01-29T09:26:02.885Z,3.30
2023-01-29T09:28:51.665Z,3.40
2023-01-29T09:31:41.845Z,3.40
2023-01-29T09:34:31.470Z,3.40
2023-01-29T09:37:23.455Z,3.50
2023-01-29T09:40:27.242Z,3.20
2023-01-29T09:43:19.491Z,3.30
2023-01-29T09:46:17.159Z,3.20
2023-01-29T09:49:13.130Z,3.30
2023-01-29T09:52:06.799Z,3.40
2023-01-29T09:55:06.989Z,3.60
2023-01-29T09:58:01.371Z,3.60
2023-01-29T10:00:58.787Z,3.70
2023-01-29T10:04:08.793Z,3.70
2023-01-29T10:07:08.265Z,3.50
2023-01-29T10:10:21.405Z,3.50
2023-01-29T10:13:21.760Z,3.50
2023-01-29T10:16:22.153Z,3.50
2023-01-29T10:19:37.166Z,3.60
2023-01-29T10:22:56.360Z,3.70
2023-01-29T10:25:47.531Z,3.70
2023-01-29T10:28:46.131Z,3.80
2023-01-29T10:31:39.134Z,3.60
2023-01-29T10:34:34.529Z,3.20
2023-01-29T10:37:26.142Z,3.10
2023-01-29T10:40:22.135Z,3.20
2023-01-29T10:43:16.798Z,3.30
2023-01-29T10:46:17.915Z,3.40
2023-01-29T10:49:23.409Z,3.40
2023-01-29T10:52:27.425Z,3.60
2023-01-29T10:55:36.025Z,3.50
2023-01-29T10:58:34.642Z,3.40
2023-01-29T11:01:23.904Z,3.40
2023-01-29T11:04:14.671Z,3.40
2023-01-29T11:07:07.023Z,3.40
2023-01-29T11:10:04.061Z,3.20
2023-01-29T11:12:54.156Z,3.30
2023-01-29T11:15:43.066Z,3.50
2023-01-29T11:18:54.700Z,3.40
2023-01-29T11:21:56.700Z,3.40
2023-01-29T11:24:45.806Z,3.40
2023-01-29T11:27:41.058Z,3.40
2023-01-29T11:30:34.689Z,3.30
2023-01-29T11:33:24.943Z,3.30
2023-01-29T11:36:33.060Z,3.20
2023-01-29T11:39:23.024Z,3.10
2023-01-29T11:42:21.594Z,3.30
2023-01-29T11:45:27.418Z,3.30
2023-01-29T11:48:18.370Z,3.40
2023-01-29T11:51:07.470Z,3.50
2023-01-29T11:54:00.191Z,3.40
2023-01-29T11:56:51.863Z,3.40
2023-01-29T11:59:48.637Z,3.50
2023-01-29T12:02:43.756Z,3.50
2023-01-29T12:05:33.319Z,3.30
2023-01-29T12:08:23.738Z,3.30
2023-01-29T12:11:25.630Z,3.30
2023-01-29T12:14:30.311Z,3.20
2023-01-29T12:17:26.453Z,3.20
2023-01-29T12:20:21.511Z,3.20
2023-01-29T12:23:25.172Z,3.00
2023-01-29T12:26:17.909Z,3.00
2023-01-29T12:29:21.652Z,3.00
2023-01-29T12:32:19.712Z,3.00
2023-01-29T12:35:17.290Z,2.90
2023-01-29T12:38:15.908Z,3.00
2023-01-29T12:41:09.104Z,3.00
2023-01-29T12:44:02.707Z,2.70
2023-01-29T12:46:55.688Z,3.10
2023-01-29T12:49:49.464Z,3.10
2023-01-29T12:52:42.121Z,3.00
2023-01-29T12:55:39.289Z,2.90
2023-01-29T12:58:33.718Z,2.90
2023-01-29T13:01:31.276Z,2.90
2023-01-29T13:04:27.475Z,3.10
2023-01-29T13:07:20.438Z,3.10
2023-01-29T13:10:15.377Z,3.20
2023-01-29T13:13:12.350Z,3.30
2023-01-29T13:16:02.352Z,3.20
2023-01-29T13:18:55.927Z,3.10
2023-01-29T13:21:46.584Z,3.00
2023-01-29T13:24:40.238Z,3.00
2023-01-29T13:27:31.732Z,3.10
2023-01-29T13:30:31.328Z,3.10
2023-01-29T13:33:25.100Z,2.90
2023-01-29T13:36:20.971Z,2.70
2023-01-29T13:39:18.393Z,2.90
2023-01-29T13:42:18.193Z,3.00
2023-01-29T13:45:09.362Z,2.80
2023-01-29T13:48:11.639Z,2.80
2023-01-29T13:51:04.129Z,2.90
2023-01-29T13:53:57.396Z,3.00
2023-01-29T13:57:01.158Z,3.00
2023-01-29T13:59:56.428Z,2.90
2023-01-29T14:02:45.361Z,2.80
2023-01-29T14:05:42.882Z,2.80
2023-01-29T14:08:41.114Z,2.90
2023-01-29T14:11:37.200Z,3.00
2023-01-29T14:15:02.519Z,3.00
2023-01-29T14:18:24.689Z,2.80
2023-01-29T14:21:25.321Z,2.70
2023-01-29T14:24:20.003Z,2.90
2023-01-29T14:27:21.330Z,2.70
2023-01-29T14:30:17.732Z,2.80
2023-01-29T14:33:18.497Z,2.80
2023-01-29T14:36:12.491Z,2.90
2023-01-29T14:39:03.074Z,2.70
2023-01-29T14:41:53.974Z,2.90
2023-01-29T14:44:57.926Z,2.90
2023-01-29T14:48:21.133Z,2.90
2023-01-29T14:51:12.253Z,2.80
2023-01-29T14:54:05.984Z,2.70
2023-01-29T14:57:00.470Z,2.60
2023-01-29T14:59:57.147Z,2.70
2023-01-29T15:02:46.931Z,2.60
2023-01-29T15:05:39.242Z,2.70
2023-01-29T15:08:33.879Z,2.70
2023-01-29T15:11:38.464Z,2.80
2023-01-29T15:14:33.910Z,2.80
2023-01-29T15:17:30.152Z,2.90
2023-01-29T15:20:30.034Z,2.90
2023-01-29T15:23:30.065Z,2.70
2023-01-29T15:26:21.620Z,2.60
2023-01-29T15:29:25.391Z,2.50
2023-01-29T15:32:28.342Z,2.80
2023-01-29T15:35:29.983Z,2.70
2023-01-29T15:38:20.122Z,2.70
2023-01-29T15:41:20.231Z,2.80
2023-01-29T15:44:14.763Z,2.70
2023-01-29T15:47:05.003Z,2.80
2023-01-29T15:49:54.523Z,2.80
2023-01-29T15:52:43.465Z,2.80
2023-01-29T15:55:33.975Z,2.70
2023-01-29T15:58:31.728Z,2.80
2023-01-29T16:01:21.313Z,2.80
2023-01-29T16:04:16.197Z,2.80
2023-01-29T16:07:05.066Z,2.80
2023-01-29T16:09:55.125Z,2.80
2023-01-29T16:12:47.394Z,2.80
2023-01-29T16:15:39.415Z,2.60
2023-01-29T16:18:34.535Z,2.70
2023-01-29T16:21:29.983Z,2.80
2023-01-29T16:24:22.536Z,2.80
2023-01-29T16:27:15.293Z,2.80
2023-01-29T16:30:05.573Z,2.80
2023-01-29T16:32:54.593Z,2.80
2023-01-29T16:35:43.972Z,2.80
2023-01-29T16:38:36.625Z,2.90
2023-01-29T16:41:35.967Z,2.80
2023-01-29T16:44:34.724Z,2.70
2023-01-29T16:47:32.349Z,2.70
2023-01-29T16:50:27.781Z,2.70
2023-01-29T16:53:22.052Z,2.80
2023-01-29T16:56:12.260Z,2.80
2023-01-29T16:59:02.845Z,2.80
2023-01-29T17:01:51.890Z,2.80
2023-01-29T17:04:42.465Z,2.70
2023-01-29T17:07:35.892Z,2.70
2023-01-29T17:10:25.839Z,2.80
2023-01-29T17:13:30.195Z,2.80
2023-01-29T17:16:24.619Z,2.80
2023-01-29T17:19:20.902Z,2.70
2023-01-29T17:22:14.827Z,2.80
2023-01-29T17:25:03.765Z,2.80
2023-01-29T17:27:55.717Z,2.80
2023-01-29T17:30:56.561Z,2.90
2023-01-29T17:33:49.260Z,2.80
2023-01-29T17:36:37.991Z,2.90
2023-01-29T17:39:26.748Z,2.90
2023-01-29T17:42:16.299Z,2.80
2023-01-29T17:45:05.444Z,2.90
2023-01-29T17:47:56.116Z,3.00
2023-01-29T17:50:48.521Z,2.90
2023-01-29T17:53:45.612Z,2.70
2023-01-29T17:56:35.284Z,2.90
2023-01-29T17:59:25.789Z,2.80
2023-01-29T18:02:29.648Z,2.80
2023-01-29T18:05:20.500Z,2.80
2023-01-29T18:08:15.929Z,2.90
2023-01-29T18:11:04.824Z,2.90
2023-01-29T18:13:53.563Z,3.00
2023-01-29T18:16:42.811Z,2.90
2023-01-29T18:19:32.495Z,2.90
2023-01-29T18:22:22.849Z,2.90
2023-01-29T18:25:11.600Z,2.90
2023-01-29T18:28:00.471Z,2.80
2023-01-29T18:30:49.281Z,2.90
2023-01-29T18:33:38.593Z,2.90
2023-01-29T18:36:27.543Z,2.90
2023-01-29T18:39:18.265Z,2.90
2023-01-29T18:42:07.390Z,3.00
2023-01-29T18:44:56.120Z,2.80
2023-01-29T18:47:44.868Z,2.80
2023-01-29T18:50:33.905Z,2.80
2023-01-29T18:53:22.672Z,2.90
2023-01-29T18:56:16.535Z,2.90
2023-01-29T18:59:06.663Z,3.10
2023-01-29T19:01:55.878Z,3.00
2023-01-29T19:04:44.646Z,2.90
2023-01-29T19:07:52.742Z,3.00
2023-01-29T19:10:41.763Z,3.00
2023-01-29T19:13:32.309Z,3.00
2023-01-29T19:16:21.007Z,3.00
2023-01-29T19:19:09.776Z,2.90
2023-01-29T19:21:58.782Z,2.90
2023-01-29T19:24:47.517Z,3.00
2023-01-29T19:27:36.243Z,2.90
2023-01-29T19:30:26.527Z,3.00
2023-01-29T19:33:15.350Z,3.00
2023-01-29T19:36:04.258Z,3.10
2023-01-29T19:38:53.076Z,3.00
2023-01-29T19:41:42.451Z,3.10
2023-01-29T19:44:31.311Z,3.10
2023-01-29T19:47:21.481Z,3.10
2023-01-29T19:50:11.847Z,3.00
2023-01-29T19:53:00.678Z,3.10
2023-01-29T19:55:49.496Z,2.90
2023-01-29T19:58:38.454Z,3.10
2023-01-29T20:01:29.982Z,3.00
2023-01-29T20:04:20.136Z,3.00
2023-01-29T20:07:12.221Z,3.00
2023-01-29T20:10:01.210Z,3.00
2023-01-29T20:12:49.894Z,3.00
2023-01-29T20:15:38.755Z,3.00
2023-01-29T20:18:30.984Z,3.00
2023-01-29T20:21:23.126Z,3.10
2023-01-29T20:24:13.560Z,3.10
2023-01-29T20:27:03.173Z,3.10
2023-01-29T20:29:52.706Z,3.00
2023-01-29T20:32:41.587Z,3.00
2023-01-29T20:35:31.672Z,3.00
2023-01-29T20:38:22.103Z,3.00
2023-01-29T20:41:14.685Z,3.10
2023-01-29T20:44:03.425Z,3.10
2023-01-29T20:46:52.114Z,2.90
2023-01-29T20:49:40.933Z,3.10
2023-01-29T20:52:30.097Z,3.00
2023-01-29T20:55:20.858Z,3.00
2023-01-29T20:58:10.238Z,3.00
2023-01-29T21:00:59.109Z,3.10
2023-01-29T21:03:48.769Z,3.00
2023-01-29T21:06:37.554Z,3.10
2023-01-29T21:09:26.334Z,3.10
2023-01-29T21:12:16.796Z,3.10
2023-01-29T21:15:05.997Z,3.10
2023-01-29T21:17:55.073Z,3.20
2023-01-29T21:20:44.075Z,3.30
2023-01-29T21:23:33.207Z,3.20
2023-01-29T21:26:23.720Z,3.20
2023-01-29T21:29:14.570Z,3.20
2023-01-29T21:32:04.563Z,3.20
2023-01-29T21:34:53.344Z,3.10
2023-01-29T21:37:42.581Z,3.10
2023-01-29T21:40:35.502Z,3.10
2023-01-29T21:43:23.264Z,3.00
2023-01-29T21:46:13.617Z,3.00
2023-01-29T21:49:02.489Z,3.00
2023-01-29T21:51:51.792Z,3.00
2023-01-29T21:54:41.170Z,2.90
2023-01-29T21:57:30.047Z,3.00
2023-01-29T22:00:19.993Z,3.10
2023-01-29T22:03:10.619Z,3.10
2023-01-29T22:05:59.332Z,3.00
2023-01-29T22:08:50.263Z,3.10
2023-01-29T22:11:39.195Z,3.10
2023-01-29T22:14:28.309Z,3.10
2023-01-29T22:17:17.481Z,3.10
2023-01-29T22:20:09.304Z,3.10
2023-01-29T22:23:00.666Z,3.10
2023-01-29T22:25:49.477Z,3.20
2023-01-29T22:28:38.340Z,3.20
2023-01-29T22:31:27.112Z,3.20
2023-01-29T22:34:16.420Z,3.00
2023-01-29T22:37:06.443Z,3.00
2023-01-29T22:39:55.653Z,3.10
2023-01-29T22:42:44.305Z,2.90
2023-01-29T22:45:33.995Z,2.90
2023-01-29T22:48:24.029Z,3.00
2023-01-29T22:51:13.921Z,3.00
2023-01-29T22:54:04.826Z,2.90
2023-01-29T22:56:53.575Z,3.00
2023-01-29T22:59:42.683Z,3.00
2023-01-29T23:02:31.650Z,3.10
2023-01-29T23:05:20.525Z,3.10
2023-01-29T23:08:09.241Z,3.20
2023-01-29T23:11:14.094Z,3.10
2023-01-29T23:14:03.113Z,3.20
2023-01-29T23:16:51.890Z,3.10
2023-01-29T23:19:40.605Z,3.20
2023-01-29T23:22:29.916Z,3.20
2023-01-29T23:25:18.805Z,3.20
2023-01-29T23:28:07.848Z,3.20
2023-01-29T23:30:56.656Z,3.30
2023-01-29T23:33:46.127Z,3.30
2023-01-29T23:36:35.121Z,3.30
2023-01-29T23:39:23.883Z,3.40
2023-01-29T23:42:13.177Z,3.40
2023-01-29T23:45:03.294Z,3.40
2023-01-29T23:47:52.197Z,3.40
2023-01-29T23:50:40.967Z,3.40
2023-01-29T23:53:30.288Z,3.50
2023-01-29T23:56:19.312Z,3.50
2023-01-29T23:59:11.388Z,3.40
